createdAt,value
2022-08-26T00:00:21.397Z,51.21
2022-08-26T00:02:49.747Z,51.32
2022-08-26T00:05:18.261Z,51.27
2022-08-26T00:07:47.339Z,51.18
2022-08-26T00:10:16.088Z,51.54
2022-08-26T00:12:46.020Z,51.64
2022-08-26T00:15:17.539Z,51.72
2022-08-26T00:17:48.104Z,51.72
2022-08-26T00:20:20.579Z,51.85
2022-08-26T00:22:49.330Z,51.87
2022-08-26T00:25:18.191Z,51.88
2022-08-26T00:27:47.782Z,51.80
2022-08-26T00:30:24.914Z,51.83
2022-08-26T00:32:57.450Z,51.92
2022-08-26T00:35:28.094Z,52.07
2022-08-26T00:37:57.120Z,51.97
2022-08-26T00:40:32.815Z,52.01
2022-08-26T00:43:02.327Z,51.95
2022-08-26T00:45:44.406Z,52.05
2022-08-26T00:48:18.127Z,52.31
2022-08-26T00:50:52.714Z,52.01
2022-08-26T00:53:26.021Z,52.08
2022-08-26T00:56:02.783Z,52.21
2022-08-26T00:58:33.987Z,52.38
2022-08-26T01:01:03.301Z,52.34
2022-08-26T01:03:36.220Z,52.30
2022-08-26T01:06:05.334Z,52.66
2022-08-26T01:08:41.415Z,52.54
2022-08-26T01:11:10.177Z,52.76
2022-08-26T01:13:39.479Z,52.81
2022-08-26T01:16:12.502Z,52.82
2022-08-26T01:18:45.002Z,52.81
2022-08-26T01:21:21.017Z,53.04
2022-08-26T01:23:57.479Z,53.01
2022-08-26T01:26:29.741Z,53.17
2022-08-26T01:29:01.432Z,53.32
2022-08-26T01:31:36.742Z,53.38
2022-08-26T01:34:12.188Z,53.19
2022-08-26T01:36:41.500Z,53.28
2022-08-26T01:39:12.700Z,53.34
2022-08-26T01:41:44.073Z,53.33
2022-08-26T01:44:21.145Z,53.26
2022-08-26T01:46:51.805Z,53.37
2022-08-26T01:49:21.387Z,53.46
2022-08-26T01:51:54.231Z,53.48
2022-08-26T01:54:24.787Z,53.47
2022-08-26T01:56:53.773Z,53.50
2022-08-26T01:59:24.489Z,53.57
2022-08-26T02:01:53.207Z,53.79
2022-08-26T02:04:27.618Z,53.69
2022-08-26T02:06:57.916Z,53.55
2022-08-26T02:09:29.216Z,53.77
2022-08-26T02:12:01.447Z,53.69
2022-08-26T02:17:07.282Z,53.93
2022-08-26T02:19:41.052Z,53.68
2022-08-26T02:22:16.186Z,53.78
2022-08-26T02:24:52.701Z,53.92
2022-08-26T02:27:24.862Z,53.85
2022-08-26T02:29:58.982Z,54.08
2022-08-26T02:32:27.403Z,54.11
2022-08-26T02:34:55.850Z,54.26
2022-08-26T02:37:24.253Z,54.44
2022-08-26T02:39:55.174Z,54.30
2022-08-26T02:42:23.604Z,54.41
2022-08-26T02:44:53.306Z,54.24
2022-08-26T02:47:21.674Z,54.28
2022-08-26T02:49:53.714Z,54.54
2022-08-26T02:52:22.103Z,54.46
2022-08-26T02:54:50.467Z,54.42
2022-08-26T02:57:20.630Z,54.65
2022-08-26T02:59:50.744Z,54.70
2022-08-26T03:02:19.161Z,54.76
2022-08-26T03:04:58.062Z,54.58
2022-08-26T03:07:30.862Z,54.74
2022-08-26T03:09:59.458Z,54.68
2022-08-26T03:12:29.213Z,54.65
2022-08-26T03:14:58.337Z,54.80
2022-08-26T03:17:26.921Z,54.95
2022-08-26T03:19:57.204Z,55.00
2022-08-26T03:22:27.121Z,55.02
2022-08-26T03:24:55.726Z,54.92
2022-08-26T03:27:24.044Z,55.15
2022-08-26T03:30:11.735Z,55.02
2022-08-26T03:32:41.367Z,55.19
2022-08-26T03:35:10.637Z,55.15
2022-08-26T03:37:39.806Z,55.35
2022-08-26T03:40:11.617Z,55.24
2022-08-26T03:42:41.389Z,55.37
2022-08-26T03:45:16.747Z,55.06
2022-08-26T03:47:45.783Z,55.31
2022-08-26T03:50:22.644Z,55.45
2022-08-26T03:52:51.782Z,55.48
2022-08-26T03:55:23.599Z,55.56
2022-08-26T03:57:52.177Z,55.52
2022-08-26T04:00:22.735Z,55.60
2022-08-26T04:02:53.264Z,55.68
2022-08-26T04:05:24.145Z,55.73
2022-08-26T04:07:53.033Z,55.71
2022-08-26T04:10:28.574Z,55.53
2022-08-26T04:13:05.940Z,55.67
2022-08-26T04:15:35.692Z,55.72
2022-08-26T04:18:04.650Z,55.77
2022-08-26T04:20:33.045Z,55.44
2022-08-26T04:23:01.465Z,55.60
2022-08-26T04:25:30.138Z,55.67
2022-08-26T04:27:58.495Z,55.57
2022-08-26T04:30:26.888Z,55.80
2022-08-26T04:32:56.609Z,55.86
2022-08-26T04:35:26.330Z,55.85
2022-08-26T04:37:56.166Z,55.95
2022-08-26T04:40:27.589Z,55.87
2022-08-26T04:42:56.866Z,55.94
2022-08-26T04:45:26.310Z,56.27
2022-08-26T04:47:58.254Z,56.19
2022-08-26T04:50:27.022Z,56.28
2022-08-26T04:52:56.405Z,56.21
2022-08-26T04:55:39.720Z,56.37
2022-08-26T04:58:11.181Z,56.27
2022-08-26T05:00:40.339Z,56.27
2022-08-26T05:03:10.775Z,56.43
2022-08-26T05:05:41.304Z,56.38
2022-08-26T05:08:11.235Z,56.34
2022-08-26T05:10:43.665Z,56.60
2022-08-26T05:13:15.111Z,56.71
2022-08-26T05:15:45.281Z,56.78
2022-08-26T05:18:17.460Z,56.71
2022-08-26T05:20:51.527Z,56.49
2022-08-26T05:23:23.569Z,56.58
2022-08-26T05:25:58.995Z,56.65
2022-08-26T05:28:29.633Z,56.59
2022-08-26T05:30:58.362Z,56.73
2022-08-26T05:33:28.905Z,56.57
2022-08-26T05:35:57.214Z,56.66
2022-08-26T05:38:25.579Z,56.98
2022-08-26T05:40:58.717Z,56.89
2022-08-26T05:43:27.889Z,57.01
2022-08-26T05:45:56.403Z,56.79
2022-08-26T05:48:25.130Z,56.78
2022-08-26T05:50:55.145Z,56.85
2022-08-26T05:53:26.088Z,56.71
2022-08-26T05:55:56.201Z,56.67
2022-08-26T05:58:25.316Z,56.70
2022-08-26T06:01:03.545Z,56.95
2022-08-26T06:03:34.758Z,56.55
2022-08-26T06:06:07.524Z,56.65
2022-08-26T06:08:37.767Z,56.65
2022-08-26T06:11:10.751Z,56.69
2022-08-26T06:13:47.909Z,56.50
2022-08-26T06:16:19.463Z,56.91
2022-08-26T06:18:49.200Z,57.01
2022-08-26T06:21:21.405Z,56.59
2022-08-26T06:24:10.885Z,56.79
2022-08-26T06:26:42.961Z,56.72
2022-08-26T06:29:15.467Z,56.99
2022-08-26T06:31:54.032Z,57.11
2022-08-26T06:34:29.636Z,57.25
2022-08-26T06:37:03.550Z,56.85
2022-08-26T06:39:32.704Z,56.88
2022-08-26T06:42:03.056Z,56.81
2022-08-26T06:44:32.377Z,56.75
2022-08-26T06:47:00.873Z,56.90
2022-08-26T06:49:29.439Z,56.90
2022-08-26T06:51:59.751Z,57.00
2022-08-26T06:54:30.248Z,56.97
2022-08-26T06:56:59.024Z,57.00
2022-08-26T06:59:27.759Z,56.86
2022-08-26T07:01:56.541Z,57.01
2022-08-26T07:04:25.060Z,56.85
2022-08-26T07:06:57.025Z,56.73
2022-08-26T07:09:33.134Z,56.58
2022-08-26T07:12:01.833Z,56.70
2022-08-26T07:14:31.746Z,56.56
2022-08-26T07:17:01.374Z,56.66
2022-08-26T07:19:31.392Z,56.62
2022-08-26T07:22:01.974Z,56.60
2022-08-26T07:24:32.534Z,56.70
2022-08-26T07:27:02.735Z,56.76
2022-08-26T07:29:32.367Z,56.37
2022-08-26T07:32:00.808Z,56.30
2022-08-26T07:34:29.358Z,56.67
2022-08-26T07:36:58.727Z,56.64
2022-08-26T07:39:27.943Z,56.76
2022-08-26T07:42:01.372Z,56.41
2022-08-26T07:44:32.292Z,56.64
2022-08-26T07:47:00.865Z,56.09
2022-08-26T07:49:29.682Z,55.83
2022-08-26T07:51:58.177Z,55.87
2022-08-26T07:54:27.318Z,55.62
2022-08-26T07:56:57.620Z,55.89
2022-08-26T07:59:26.415Z,55.61
2022-08-26T08:01:54.794Z,55.82
2022-08-26T08:04:26.544Z,55.58
2022-08-26T08:06:55.499Z,54.85
2022-08-26T08:09:24.599Z,55.16
2022-08-26T08:11:54.051Z,54.63
2022-08-26T08:14:23.788Z,54.87
2022-08-26T08:16:55.057Z,54.66
2022-08-26T08:19:24.400Z,54.33
2022-08-26T08:22:17.085Z,54.32
2022-08-26T08:24:49.886Z,53.76
2022-08-26T08:27:23.881Z,53.88
2022-08-26T08:29:55.230Z,53.09
2022-08-26T08:32:24.439Z,53.18
2022-08-26T08:34:52.947Z,53.50
2022-08-26T08:37:21.359Z,52.76
2022-08-26T08:39:50.176Z,52.99
2022-08-26T08:42:39.736Z,53.05
2022-08-26T08:45:15.410Z,53.04
2022-08-26T08:47:54.778Z,52.74
2022-08-26T08:50:28.925Z,52.60
2022-08-26T08:53:15.128Z,52.94
2022-08-26T08:56:00.101Z,53.19
2022-08-26T08:58:50.471Z,52.38
2022-08-26T09:01:31.586Z,52.38
2022-08-26T09:04:23.212Z,52.02
2022-08-26T09:09:31.924Z,52.35
2022-08-26T09:12:02.225Z,52.18
2022-08-26T09:14:32.710Z,51.38
2022-08-26T09:17:09.875Z,51.12
2022-08-26T09:19:44.597Z,50.90
2022-08-26T09:22:29.442Z,50.73
2022-08-26T09:24:57.820Z,50.86
2022-08-26T09:27:46.327Z,50.17
2022-08-26T09:30:34.426Z,50.54
2022-08-26T09:33:10.874Z,50.05
2022-08-26T09:35:43.861Z,49.50
2022-08-26T09:38:26.677Z,49.84
2022-08-26T09:40:59.765Z,49.21
2022-08-26T09:43:29.116Z,48.88
2022-08-26T09:46:15.167Z,49.60
2022-08-26T09:48:45.041Z,49.45
2022-08-26T09:51:30.723Z,49.36
2022-08-26T09:54:02.224Z,49.66
2022-08-26T09:56:34.291Z,49.10
2022-08-26T09:59:03.981Z,48.72
2022-08-26T10:01:40.195Z,49.06
2022-08-26T10:04:14.026Z,49.22
2022-08-26T10:06:46.240Z,48.70
2022-08-26T10:09:19.510Z,48.20
2022-08-26T10:11:53.536Z,48.24
2022-08-26T10:14:27.553Z,48.44
2022-08-26T10:17:03.552Z,48.27
2022-08-26T10:19:57.078Z,47.63
2022-08-26T10:22:33.472Z,47.41
2022-08-26T10:25:04.961Z,47.28
2022-08-26T10:27:51.206Z,47.28
2022-08-26T10:30:25.092Z,47.34
2022-08-26T10:32:58.829Z,47.46
2022-08-26T10:35:29.488Z,47.21
2022-08-26T10:38:03.954Z,47.19
2022-08-26T10:40:46.178Z,47.18
2022-08-26T10:43:23.534Z,47.14
2022-08-26T10:45:59.937Z,46.82
2022-08-26T10:48:37.368Z,47.65
2022-08-26T10:51:08.687Z,47.95
2022-08-26T10:53:51.412Z,48.46
2022-08-26T10:56:38.125Z,47.41
2022-08-26T10:59:16.036Z,46.28
2022-08-26T11:01:52.624Z,46.00
2022-08-26T11:04:40.868Z,45.65
2022-08-26T11:07:41.908Z,46.15
2022-08-26T11:10:28.145Z,44.54
2022-08-26T11:13:00.190Z,44.50
2022-08-26T11:16:10.804Z,44.62
2022-08-26T11:18:46.994Z,43.92
2022-08-26T11:22:06.065Z,43.81
2022-08-26T11:25:07.610Z,43.69
2022-08-26T11:28:05.229Z,43.75
2022-08-26T11:30:57.011Z,43.47
2022-08-26T11:34:00.819Z,43.34
2022-08-26T11:37:05.061Z,43.64
2022-08-26T11:39:54.077Z,43.27
2022-08-26T11:42:34.341Z,43.13
2022-08-26T11:45:20.815Z,43.01
2022-08-26T11:47:49.370Z,42.90
2022-08-26T11:50:21.486Z,42.90
2022-08-26T11:52:55.405Z,43.02
2022-08-26T11:55:25.278Z,42.83
2022-08-26T11:57:57.690Z,42.64
2022-08-26T12:00:31.446Z,43.01
2022-08-26T12:03:07.779Z,43.53
2022-08-26T12:05:44.307Z,43.50
2022-08-26T12:08:16.573Z,42.93
2022-08-26T12:10:46.553Z,43.19
2022-08-26T12:13:24.044Z,42.99
2022-08-26T12:15:57.062Z,42.74
2022-08-26T12:18:28.879Z,43.32
2022-08-26T12:21:00.980Z,42.63
2022-08-26T12:23:46.723Z,42.97
2022-08-26T12:26:24.588Z,43.82
2022-08-26T12:28:58.002Z,43.12
2022-08-26T12:31:35.454Z,43.72
2022-08-26T12:34:07.221Z,43.77
2022-08-26T12:36:50.904Z,43.41
2022-08-26T12:39:28.488Z,43.42
2022-08-26T12:42:00.084Z,42.63
2022-08-26T12:44:54.054Z,42.57
2022-08-26T12:47:42.052Z,41.76
2022-08-26T12:50:20.562Z,41.40
2022-08-26T12:53:01.089Z,41.36
2022-08-26T12:55:41.401Z,41.35
2022-08-26T12:58:24.504Z,40.68
2022-08-26T13:00:55.233Z,40.46
2022-08-26T13:03:44.509Z,40.20
2022-08-26T13:06:18.105Z,39.70
2022-08-26T13:08:48.430Z,39.42
2022-08-26T13:11:21.344Z,39.41
2022-08-26T13:13:53.415Z,39.17
2022-08-26T13:16:23.818Z,39.37
2022-08-26T13:18:55.669Z,39.34
2022-08-26T13:21:26.999Z,39.61
2022-08-26T13:23:55.961Z,39.56
2022-08-26T13:26:24.308Z,39.22
2022-08-26T13:29:01.640Z,39.16
2022-08-26T13:31:32.525Z,39.34
2022-08-26T13:34:02.552Z,39.71
2022-08-26T13:36:31.418Z,40.53
2022-08-26T13:39:00.482Z,41.01
2022-08-26T13:41:29.871Z,40.58
2022-08-26T13:44:00.094Z,39.82
2022-08-26T13:46:29.017Z,39.53
2022-08-26T13:48:58.563Z,38.58
2022-08-26T13:51:28.448Z,38.57
2022-08-26T13:53:57.385Z,38.20
2022-08-26T13:56:29.373Z,37.79
2022-08-26T13:59:01.179Z,37.03
2022-08-26T14:01:31.719Z,37.40
2022-08-26T14:04:00.075Z,37.33
2022-08-26T14:06:28.739Z,37.02
2022-08-26T14:08:57.062Z,37.20
2022-08-26T14:11:25.773Z,36.83
2022-08-26T14:13:54.222Z,36.94
2022-08-26T14:16:31.512Z,37.25
2022-08-26T14:19:01.321Z,36.89
2022-08-26T14:21:32.613Z,37.58
2022-08-26T14:24:01.188Z,37.13
2022-08-26T14:26:30.184Z,38.01
2022-08-26T14:28:59.735Z,38.25
2022-08-26T14:31:31.738Z,37.96
2022-08-26T14:34:04.794Z,38.29
2022-08-26T14:36:33.890Z,38.12
2022-08-26T14:39:06.421Z,38.66
2022-08-26T14:41:37.120Z,37.53
2022-08-26T14:44:09.968Z,37.19
2022-08-26T14:46:46.532Z,37.45
2022-08-26T14:49:16.055Z,36.96
2022-08-26T14:51:44.456Z,38.34
2022-08-26T14:54:13.295Z,38.58
2022-08-26T14:56:48.531Z,38.85
2022-08-26T14:59:20.748Z,39.30
2022-08-26T15:01:50.998Z,38.73
2022-08-26T15:04:19.918Z,39.36
2022-08-26T15:06:48.629Z,38.88
2022-08-26T15:09:17.252Z,39.22
2022-08-26T15:11:46.428Z,39.29
2022-08-26T15:14:19.830Z,39.24
2022-08-26T15:16:51.262Z,39.66
2022-08-26T15:19:20.357Z,39.67
2022-08-26T15:21:48.877Z,39.97
2022-08-26T15:24:21.554Z,40.02
2022-08-26T15:26:50.261Z,40.09
2022-08-26T15:29:18.813Z,40.35
2022-08-26T15:31:49.591Z,40.35
2022-08-26T15:34:18.811Z,40.25
2022-08-26T15:36:49.304Z,39.62
2022-08-26T15:39:18.837Z,40.02
2022-08-26T15:41:47.970Z,40.50
2022-08-26T15:44:18.419Z,40.12
2022-08-26T15:46:50.073Z,40.15
2022-08-26T15:49:19.019Z,39.88
2022-08-26T15:51:50.317Z,40.27
2022-08-26T15:54:21.770Z,39.91
2022-08-26T15:56:53.027Z,39.91
2022-08-26T15:59:23.662Z,39.47
2022-08-26T16:01:53.777Z,39.54
2022-08-26T16:04:22.428Z,39.18
2022-08-26T16:06:52.225Z,38.73
2022-08-26T16:09:24.256Z,39.12
2022-08-26T16:11:53.220Z,39.13
2022-08-26T16:14:21.886Z,38.82
2022-08-26T16:16:50.516Z,38.96
2022-08-26T16:19:21.044Z,39.11
2022-08-26T16:21:50.777Z,38.72
2022-08-26T16:24:24.845Z,38.67
2022-08-26T16:26:55.998Z,38.77
2022-08-26T16:29:24.588Z,38.93
2022-08-26T16:31:54.540Z,39.08
2022-08-26T16:34:24.559Z,39.26
2022-08-26T16:36:53.223Z,39.06
2022-08-26T16:39:21.614Z,39.04
2022-08-26T16:41:50.503Z,38.96
2022-08-26T16:44:19.398Z,39.20
2022-08-26T16:46:48.040Z,39.14
2022-08-26T16:49:16.520Z,38.67
2022-08-26T16:51:46.819Z,38.29
2022-08-26T16:54:15.243Z,38.61
2022-08-26T16:56:43.663Z,38.28
2022-08-26T16:59:12.747Z,38.51
2022-08-26T17:01:41.311Z,38.45
2022-08-26T17:04:09.749Z,38.61
2022-08-26T17:06:38.300Z,39.04
2022-08-26T17:09:08.212Z,38.55
2022-08-26T17:11:36.951Z,38.81
2022-08-26T17:14:05.803Z,39.23
2022-08-26T17:16:34.245Z,39.21
2022-08-26T17:19:04.533Z,39.75
2022-08-26T17:21:34.361Z,39.83
2022-08-26T17:24:03.216Z,39.74
2022-08-26T17:26:33.350Z,40.15
2022-08-26T17:29:01.828Z,40.59
2022-08-26T17:31:30.213Z,40.50
2022-08-26T17:33:58.886Z,40.79
2022-08-26T17:36:28.498Z,40.88
2022-08-26T17:38:58.589Z,41.13
2022-08-26T17:41:28.004Z,40.88
2022-08-26T17:43:57.820Z,41.41
2022-08-26T17:46:26.657Z,41.57
2022-08-26T17:48:55.411Z,41.75
2022-08-26T17:51:24.017Z,41.95
2022-08-26T17:53:53.118Z,42.02
2022-08-26T17:56:25.510Z,42.08
2022-08-26T17:58:56.477Z,42.30
2022-08-26T18:01:28.724Z,42.29
2022-08-26T18:04:00.474Z,42.56
2022-08-26T18:06:31.389Z,42.49
2022-08-26T18:09:00.703Z,42.91
2022-08-26T18:11:31.970Z,42.72
2022-08-26T18:14:00.726Z,43.37
2022-08-26T18:16:31.688Z,43.48
2022-08-26T18:19:00.938Z,43.80
2022-08-26T18:21:29.608Z,43.96
2022-08-26T18:23:58.510Z,44.08
2022-08-26T18:26:31.190Z,43.89
2022-08-26T18:28:59.911Z,44.56
2022-08-26T18:31:30.731Z,44.69
2022-08-26T18:34:01.325Z,44.74
2022-08-26T18:36:33.467Z,44.98
2022-08-26T18:39:03.899Z,45.01
2022-08-26T18:41:35.635Z,44.99
2022-08-26T18:44:04.704Z,45.35
2022-08-26T18:46:34.612Z,45.73
2022-08-26T18:49:03.036Z,45.65
2022-08-26T18:51:34.121Z,45.83
2022-08-26T18:54:06.338Z,46.29
2022-08-26T18:56:36.571Z,46.39
2022-08-26T18:59:07.252Z,46.48
2022-08-26T19:01:40.497Z,47.06
2022-08-26T19:04:14.774Z,47.23
2022-08-26T19:06:48.331Z,47.36
2022-08-26T19:09:17.929Z,47.24
2022-08-26T19:11:47.199Z,47.92
2022-08-26T19:14:18.387Z,48.18
2022-08-26T19:16:50.644Z,48.00
2022-08-26T19:19:19.924Z,48.32
2022-08-26T19:21:48.777Z,48.48
2022-08-26T19:24:19.131Z,48.43
2022-08-26T19:26:55.196Z,48.75
2022-08-26T19:29:30.264Z,48.68
2022-08-26T19:32:00.376Z,49.16
2022-08-26T19:34:29.569Z,49.00
2022-08-26T19:36:58.547Z,49.31
2022-08-26T19:39:27.780Z,49.28
2022-08-26T19:41:56.250Z,49.57
2022-08-26T19:44:42.244Z,49.44
2022-08-26T19:47:13.356Z,49.28
2022-08-26T19:49:41.739Z,49.32
2022-08-26T19:52:11.133Z,49.73
2022-08-26T19:54:40.431Z,49.81
2022-08-26T19:57:08.834Z,49.63
2022-08-26T19:59:37.410Z,50.01
2022-08-26T20:02:10.538Z,50.01
2022-08-26T20:04:41.829Z,50.12
2022-08-26T20:07:14.066Z,50.11
2022-08-26T20:09:45.018Z,50.68
2022-08-26T20:12:13.709Z,50.65
2022-08-26T20:14:42.866Z,50.57
2022-08-26T20:17:11.275Z,50.79
2022-08-26T20:19:58.511Z,50.49
2022-08-26T20:22:26.888Z,50.53
2022-08-26T20:24:55.421Z,50.54
2022-08-26T20:27:27.695Z,50.55
2022-08-26T20:30:09.620Z,50.78
2022-08-26T20:32:38.696Z,50.64
2022-08-26T20:35:14.328Z,50.63
2022-08-26T20:37:43.292Z,50.82
2022-08-26T20:40:14.022Z,50.89
2022-08-26T20:42:42.565Z,50.84
2022-08-26T20:45:11.887Z,50.87
2022-08-26T20:47:40.321Z,50.81
2022-08-26T20:50:10.929Z,51.14
2022-08-26T20:52:39.341Z,51.25
2022-08-26T20:55:08.809Z,51.69
2022-08-26T20:57:37.339Z,51.83
2022-08-26T21:00:07.546Z,51.65
2022-08-26T21:02:35.909Z,51.86
2022-08-26T21:05:04.602Z,51.71
2022-08-26T21:07:34.323Z,51.99
2022-08-26T21:10:03.876Z,51.79
2022-08-26T21:12:32.238Z,52.07
2022-08-26T21:15:00.661Z,51.83
2022-08-26T21:17:29.298Z,52.16
2022-08-26T21:19:57.585Z,52.10
2022-08-26T21:22:26.508Z,51.79
2022-08-26T21:24:56.239Z,51.97
2022-08-26T21:27:26.387Z,52.03
2022-08-26T21:29:55.383Z,52.19
2022-08-26T21:32:23.864Z,52.08
2022-08-26T21:34:55.981Z,52.33
2022-08-26T21:37:25.566Z,52.36
2022-08-26T21:39:57.115Z,52.66
2022-08-26T21:42:27.227Z,52.68
2022-08-26T21:44:55.740Z,52.78
2022-08-26T21:47:25.463Z,52.70
2022-08-26T21:49:54.310Z,52.85
2022-08-26T21:52:22.721Z,53.01
2022-08-26T21:54:51.143Z,53.09
2022-08-26T21:57:22.281Z,52.97
2022-08-26T21:59:50.567Z,52.95
2022-08-26T22:02:19.065Z,52.99
2022-08-26T22:04:49.016Z,53.25
2022-08-26T22:07:19.124Z,53.20
2022-08-26T22:09:47.931Z,53.30
2022-08-26T22:12:18.181Z,53.34
2022-08-26T22:14:48.114Z,53.31
2022-08-26T22:17:16.947Z,53.43
2022-08-26T22:19:46.432Z,53.37
2022-08-26T22:22:16.230Z,53.28
2022-08-26T22:24:44.668Z,53.51
2022-08-26T22:27:14.325Z,53.59
2022-08-26T22:29:42.675Z,53.63
2022-08-26T22:32:12.387Z,53.73
2022-08-26T22:34:41.915Z,53.86
2022-08-26T22:37:10.224Z,53.72
2022-08-26T22:39:38.855Z,53.87
2022-08-26T22:42:07.496Z,53.86
2022-08-26T22:44:37.484Z,53.80
2022-08-26T22:47:06.244Z,53.79
2022-08-26T22:49:35.979Z,53.70
2022-08-26T22:52:04.867Z,53.82
2022-08-26T22:54:33.602Z,53.79
2022-08-26T22:57:02.415Z,53.94
2022-08-26T22:59:30.728Z,54.09
2022-08-26T23:01:59.136Z,54.08
2022-08-26T23:04:27.512Z,54.15
2022-08-26T23:06:57.230Z,54.26
2022-08-26T23:09:25.632Z,54.16
2022-08-26T23:11:55.927Z,54.09
2022-08-26T23:14:25.826Z,54.10
2022-08-26T23:16:54.701Z,54.38
2022-08-26T23:19:24.373Z,54.13
2022-08-26T23:21:52.895Z,54.26
2022-08-26T23:24:22.593Z,54.24
2022-08-26T23:26:51.036Z,54.22
2022-08-26T23:29:19.412Z,54.28
2022-08-26T23:31:47.740Z,54.28
2022-08-26T23:34:33.452Z,54.38
2022-08-26T23:37:02.010Z,54.43
2022-08-26T23:39:34.967Z,54.58
2022-08-26T23:42:03.466Z,54.71
2022-08-26T23:44:32.214Z,54.72
2022-08-26T23:47:01.028Z,54.84
2022-08-26T23:49:30.390Z,54.91
2022-08-26T23:52:16.820Z,54.91
2022-08-26T23:54:48.564Z,55.02
2022-08-26T23:57:19.227Z,55.07
2022-08-26T23:59:49.040Z,55.32
